首页
METAR-TAF:

METAR-TAF

机场 :

曼德勒國際機場

曼德勒, 缅甸

纬度: 21-59N, 经度: 096-06E, 海拔: 74米

当前天气观测

该预报发布于1小时和3分钟前的02:30 UTC
风速10节,风向,有时为20节阵风
温度 30°C
湿度 75%
气压 1002 hPa
能見度: 7000
多云层高于1500英尺
少量云层高于1800英尺, 积雨云.
多云层高于10000英尺

METAR: VYMD 280230Z 18010G20KT 7000 BKN015 FEW018CB BKN100 30/25 Q1002

时间: 10:03 (03:33 UTC)

预报

该预报发布于10小时和33分钟前的17:00 UTC
预报有效从27日的 18点(UTC)到 28日的 18点(UTC)
风速5节,风向东南
能見度: 7000
多云层高于1700英尺
少量云层高于2000英尺, 积雨云.
多云层高于10000英尺
短暂存在
从 27日的 18点(UTC)到 27日的 24点(UTC)
风速8节,风向
能見度: 4000
多云层高于1000英尺
少量云层高于1500英尺, 积雨云.
阴天层高于9000英尺
雷暴, 小雨,

TAF: VYMD 271700Z 2718/2818 14005KT 7000 BKN017 FEW020CB BKN100 TEMPO 2718/2724 18008KT 4000 -TSRA BKN010 FEW015CB OVC090

超过4000个机场的气象观测和天气预报(METAR&TAF报告)。

可查询的气象台以黄色和红色小点在地图上表示。

将鼠标移到小点上方,可查看气象台名称。

然后点击查看天气观测和预报。

如需切换地图:点击带黑十字的绿色按钮放大地图;点击带横线的绿色按钮缩小地图;或者点击绿色箭头查看邻近地区的地图。


METAR-TAF: